sensor_id;sensor_type;location;lat;lon;timestamp;temperature;humidity
67641;SHT31;54434;50.096;20.082;2023-06-10T00:01:27;16.86;81.50
67641;SHT31;54434;50.096;20.082;2023-06-10T00:04:06;16.84;81.57
67641;SHT31;54434;50.096;20.082;2023-06-10T00:06:42;16.82;81.62
67641;SHT31;54434;50.096;20.082;2023-06-10T00:09:21;16.82;81.70
67641;SHT31;54434;50.096;20.082;2023-06-10T00:11:58;16.79;81.70
67641;SHT31;54434;50.096;20.082;2023-06-10T00:14:35;16.75;81.81
67641;SHT31;54434;50.096;20.082;2023-06-10T00:17:13;16.72;82.07
67641;SHT31;54434;50.096;20.082;2023-06-10T00:19:50;16.71;82.15
67641;SHT31;54434;50.096;20.082;2023-06-10T00:22:27;16.69;82.31
67641;SHT31;54434;50.096;20.082;2023-06-10T00:25:05;16.68;82.41
67641;SHT31;54434;50.096;20.082;2023-06-10T00:27:44;16.67;82.54
67641;SHT31;54434;50.096;20.082;2023-06-10T00:30:20;16.67;82.77
67641;SHT31;54434;50.096;20.082;2023-06-10T00:32:58;16.66;82.84
67641;SHT31;54434;50.096;20.082;2023-06-10T00:35:35;16.67;82.88
67641;SHT31;54434;50.096;20.082;2023-06-10T00:38:12;16.67;82.90
67641;SHT31;54434;50.096;20.082;2023-06-10T00:40:49;16.66;82.94
67641;SHT31;54434;50.096;20.082;2023-06-10T00:43:25;16.67;83.05
67641;SHT31;54434;50.096;20.082;2023-06-10T00:46:02;16.67;83.25
67641;SHT31;54434;50.096;20.082;2023-06-10T00:48:38;16.69;83.25
67641;SHT31;54434;50.096;20.082;2023-06-10T00:51:18;16.70;83.29
67641;SHT31;54434;50.096;20.082;2023-06-10T00:53:55;16.71;83.32
67641;SHT31;54434;50.096;20.082;2023-06-10T00:56:32;16.72;83.37
67641;SHT31;54434;50.096;20.082;2023-06-10T00:59:10;16.73;83.42
67641;SHT31;54434;50.096;20.082;2023-06-10T01:01:46;16.75;83.50
67641;SHT31;54434;50.096;20.082;2023-06-10T01:04:24;16.75;83.68
67641;SHT31;54434;50.096;20.082;2023-06-10T01:07:07;16.76;83.73
67641;SHT31;54434;50.096;20.082;2023-06-10T01:09:55;16.76;83.80
67641;SHT31;54434;50.096;20.082;2023-06-10T01:12:39;16.77;83.83
67641;SHT31;54434;50.096;20.082;2023-06-10T01:15:25;16.78;83.88
67641;SHT31;54434;50.096;20.082;2023-06-10T01:18:03;16.79;83.82
67641;SHT31;54434;50.096;20.082;2023-06-10T01:20:47;16.79;83.83
67641;SHT31;54434;50.096;20.082;2023-06-10T01:23:24;16.80;83.87
67641;SHT31;54434;50.096;20.082;2023-06-10T01:26:02;16.81;83.80
67641;SHT31;54434;50.096;20.082;2023-06-10T01:28:49;16.81;83.79
67641;SHT31;54434;50.096;20.082;2023-06-10T01:31:38;16.81;83.80
67641;SHT31;54434;50.096;20.082;2023-06-10T01:34:25;16.81;83.82
67641;SHT31;54434;50.096;20.082;2023-06-10T01:37:06;16.83;83.80
67641;SHT31;54434;50.096;20.082;2023-06-10T01:39:46;16.83;83.79
67641;SHT31;54434;50.096;20.082;2023-06-10T01:42:24;16.84;83.74
67641;SHT31;54434;50.096;20.082;2023-06-10T01:45:02;16.84;83.75
67641;SHT31;54434;50.096;20.082;2023-06-10T01:47:41;16.84;83.71
67641;SHT31;54434;50.096;20.082;2023-06-10T01:50:18;16.84;83.70
67641;SHT31;54434;50.096;20.082;2023-06-10T01:52:54;16.84;83.65
67641;SHT31;54434;50.096;20.082;2023-06-10T01:55:32;16.85;83.60
67641;SHT31;54434;50.096;20.082;2023-06-10T01:58:08;16.84;83.66
67641;SHT31;54434;50.096;20.082;2023-06-10T02:00:45;16.84;83.73
67641;SHT31;54434;50.096;20.082;2023-06-10T02:03:22;16.83;83.76
67641;SHT31;54434;50.096;20.082;2023-06-10T02:05:58;16.84;83.81
67641;SHT31;54434;50.096;20.082;2023-06-10T02:08:35;16.84;83.80
67641;SHT31;54434;50.096;20.082;2023-06-10T02:11:11;16.84;83.82
67641;SHT31;54434;50.096;20.082;2023-06-10T02:13:47;16.84;83.80
67641;SHT31;54434;50.096;20.082;2023-06-10T02:16:24;16.84;83.76
67641;SHT31;54434;50.096;20.082;2023-06-10T02:19:00;16.85;83.76
67641;SHT31;54434;50.096;20.082;2023-06-10T02:21:38;16.85;83.73
67641;SHT31;54434;50.096;20.082;2023-06-10T02:24:14;16.86;83.72
67641;SHT31;54434;50.096;20.082;2023-06-10T02:26:51;16.86;83.71
67641;SHT31;54434;50.096;20.082;2023-06-10T02:29:27;16.87;83.76
67641;SHT31;54434;50.096;20.082;2023-06-10T02:32:05;16.88;83.76
67641;SHT31;54434;50.096;20.082;2023-06-10T02:34:44;16.89;83.76
67641;SHT31;54434;50.096;20.082;2023-06-10T02:37:22;16.90;83.74
67641;SHT31;54434;50.096;20.082;2023-06-10T02:39:59;16.92;83.71
67641;SHT31;54434;50.096;20.082;2023-06-10T02:42:37;16.92;83.72
67641;SHT31;54434;50.096;20.082;2023-06-10T02:45:14;16.92;83.75
67641;SHT31;54434;50.096;20.082;2023-06-10T02:47:51;16.93;83.72
67641;SHT31;54434;50.096;20.082;2023-06-10T02:50:27;16.93;83.76
67641;SHT31;54434;50.096;20.082;2023-06-10T02:53:11;16.96;83.76
67641;SHT31;54434;50.096;20.082;2023-06-10T02:55:51;16.96;83.75
67641;SHT31;54434;50.096;20.082;2023-06-10T02:58:28;16.97;83.75
67641;SHT31;54434;50.096;20.082;2023-06-10T03:01:05;16.98;83.73
67641;SHT31;54434;50.096;20.082;2023-06-10T03:03:50;16.99;83.71
67641;SHT31;54434;50.096;20.082;2023-06-10T03:06:28;17.01;83.68
67641;SHT31;54434;50.096;20.082;2023-06-10T03:09:15;17.01;83.63
67641;SHT31;54434;50.096;20.082;2023-06-10T03:11:53;17.02;83.60
67641;SHT31;54434;50.096;20.082;2023-06-10T03:14:30;17.05;83.53
67641;SHT31;54434;50.096;20.082;2023-06-10T03:17:07;17.05;83.50
67641;SHT31;54434;50.096;20.082;2023-06-10T03:19:45;17.06;83.55
67641;SHT31;54434;50.096;20.082;2023-06-10T03:22:21;17.07;83.51
67641;SHT31;54434;50.096;20.082;2023-06-10T03:25:07;17.09;83.52
67641;SHT31;54434;50.096;20.082;2023-06-10T03:27:48;17.10;83.53
67641;SHT31;54434;50.096;20.082;2023-06-10T03:30:25;17.11;83.49
67641;SHT31;54434;50.096;20.082;2023-06-10T03:33:01;17.14;83.39
67641;SHT31;54434;50.096;20.082;2023-06-10T03:35:38;17.15;83.36
67641;SHT31;54434;50.096;20.082;2023-06-10T03:38:15;17.18;83.26
67641;SHT31;54434;50.096;20.082;2023-06-10T03:40:52;17.20;83.22
67641;SHT31;54434;50.096;20.082;2023-06-10T03:43:29;17.22;83.13
67641;SHT31;54434;50.096;20.082;2023-06-10T03:46:05;17.24;83.05
67641;SHT31;54434;50.096;20.082;2023-06-10T03:48:42;17.26;82.96
67641;SHT31;54434;50.096;20.082;2023-06-10T03:51:20;17.29;82.83
67641;SHT31;54434;50.096;20.082;2023-06-10T03:53:56;17.34;82.63
67641;SHT31;54434;50.096;20.082;2023-06-10T03:56:33;17.36;82.55
67641;SHT31;54434;50.096;20.082;2023-06-10T03:59:10;17.38;82.45
67641;SHT31;54434;50.096;20.082;2023-06-10T04:01:46;17.41;82.33
67641;SHT31;54434;50.096;20.082;2023-06-10T04:04:24;17.44;82.22
67641;SHT31;54434;50.096;20.082;2023-06-10T04:07:02;17.49;82.10
67641;SHT31;54434;50.096;20.082;2023-06-10T04:09:40;17.54;81.90
67641;SHT31;54434;50.096;20.082;2023-06-10T04:12:16;17.58;81.72
67641;SHT31;54434;50.096;20.082;2023-06-10T04:14:53;17.62;81.53
67641;SHT31;54434;50.096;20.082;2023-06-10T04:17:29;17.63;81.35
67641;SHT31;54434;50.096;20.082;2023-06-10T04:20:08;17.66;81.07
67641;SHT31;54434;50.096;20.082;2023-06-10T04:22:47;17.70;80.88
67641;SHT31;54434;50.096;20.082;2023-06-10T04:25:23;17.73;80.75
67641;SHT31;54434;50.096;20.082;2023-06-10T04:28:00;17.78;80.48
67641;SHT31;54434;50.096;20.082;2023-06-10T04:30:37;17.82;80.23
67641;SHT31;54434;50.096;20.082;2023-06-10T04:33:15;17.86;79.98
67641;SHT31;54434;50.096;20.082;2023-06-10T04:35:52;17.91;79.70
67641;SHT31;54434;50.096;20.082;2023-06-10T04:38:29;17.97;79.39
67641;SHT31;54434;50.096;20.082;2023-06-10T04:41:05;18.04;79.34
67641;SHT31;54434;50.096;20.082;2023-06-10T04:43:42;18.10;78.95
67641;SHT31;54434;50.096;20.082;2023-06-10T04:46:19;18.17;78.69
67641;SHT31;54434;50.096;20.082;2023-06-10T04:48:56;18.25;78.44
67641;SHT31;54434;50.096;20.082;2023-06-10T04:51:33;18.31;78.15
67641;SHT31;54434;50.096;20.082;2023-06-10T04:54:10;18.35;77.92
67641;SHT31;54434;50.096;20.082;2023-06-10T04:56:47;18.38;77.77
67641;SHT31;54434;50.096;20.082;2023-06-10T04:59:24;18.42;77.40
67641;SHT31;54434;50.096;20.082;2023-06-10T05:02:01;18.44;77.23
67641;SHT31;54434;50.096;20.082;2023-06-10T05:04:38;18.50;77.21
67641;SHT31;54434;50.096;20.082;2023-06-10T05:07:15;18.53;76.67
67641;SHT31;54434;50.096;20.082;2023-06-10T05:09:51;18.61;76.75
67641;SHT31;54434;50.096;20.082;2023-06-10T05:12:28;18.72;76.30
67641;SHT31;54434;50.096;20.082;2023-06-10T05:15:05;18.77;75.80
67641;SHT31;54434;50.096;20.082;2023-06-10T05:17:43;18.86;75.63
67641;SHT31;54434;50.096;20.082;2023-06-10T05:20:20;18.97;75.47
67641;SHT31;54434;50.096;20.082;2023-06-10T05:22:57;19.11;75.06
67641;SHT31;54434;50.096;20.082;2023-06-10T05:25:33;19.27;74.72
67641;SHT31;54434;50.096;20.082;2023-06-10T05:28:10;19.44;74.14
67641;SHT31;54434;50.096;20.082;2023-06-10T05:30:46;19.60;73.58
67641;SHT31;54434;50.096;20.082;2023-06-10T05:33:23;19.75;72.88
67641;SHT31;54434;50.096;20.082;2023-06-10T05:35:59;20.03;72.03
67641;SHT31;54434;50.096;20.082;2023-06-10T05:38:36;20.28;70.97
67641;SHT31;54434;50.096;20.082;2023-06-10T05:41:13;20.47;70.81
67641;SHT31;54434;50.096;20.082;2023-06-10T05:43:49;20.53;70.71
67641;SHT31;54434;50.096;20.082;2023-06-10T05:46:26;20.58;70.00
67641;SHT31;54434;50.096;20.082;2023-06-10T05:49:03;20.65;70.14
67641;SHT31;54434;50.096;20.082;2023-06-10T05:51:39;20.74;69.82
67641;SHT31;54434;50.096;20.082;2023-06-10T05:54:16;20.83;69.17
67641;SHT31;54434;50.096;20.082;2023-06-10T05:56:52;20.96;69.06
67641;SHT31;54434;50.096;20.082;2023-06-10T05:59:29;21.20;68.36
67641;SHT31;54434;50.096;20.082;2023-06-10T06:02:06;21.34;67.51
67641;SHT31;54434;50.096;20.082;2023-06-10T06:04:43;21.42;66.91
67641;SHT31;54434;50.096;20.082;2023-06-10T06:07:19;21.42;67.04
67641;SHT31;54434;50.096;20.082;2023-06-10T06:09:56;21.39;66.79
67641;SHT31;54434;50.096;20.082;2023-06-10T06:12:33;21.33;66.77
67641;SHT31;54434;50.096;20.082;2023-06-10T06:15:11;21.29;66.88
67641;SHT31;54434;50.096;20.082;2023-06-10T06:17:48;21.27;67.23
67641;SHT31;54434;50.096;20.082;2023-06-10T06:20:25;21.28;66.95
67641;SHT31;54434;50.096;20.082;2023-06-10T06:23:01;21.21;66.98
67641;SHT31;54434;50.096;20.082;2023-06-10T06:25:40;21.19;67.19
67641;SHT31;54434;50.096;20.082;2023-06-10T06:28:16;21.18;67.06
67641;SHT31;54434;50.096;20.082;2023-06-10T06:30:54;21.06;66.96
67641;SHT31;54434;50.096;20.082;2023-06-10T06:33:31;20.94;67.41
67641;SHT31;54434;50.096;20.082;2023-06-10T06:36:08;20.89;67.74
67641;SHT31;54434;50.096;20.082;2023-06-10T06:38:44;20.83;67.94
67641;SHT31;54434;50.096;20.082;2023-06-10T06:41:21;20.84;68.33
67641;SHT31;54434;50.096;20.082;2023-06-10T06:43:58;20.83;68.05
67641;SHT31;54434;50.096;20.082;2023-06-10T06:46:41;20.78;68.12
67641;SHT31;54434;50.096;20.082;2023-06-10T06:49:17;20.69;68.27
67641;SHT31;54434;50.096;20.082;2023-06-10T06:51:53;20.63;68.59
67641;SHT31;54434;50.096;20.082;2023-06-10T06:54:30;20.69;68.82
67641;SHT31;54434;50.096;20.082;2023-06-10T06:57:07;20.73;68.66
67641;SHT31;54434;50.096;20.082;2023-06-10T06:59:44;20.76;68.20
67641;SHT31;54434;50.096;20.082;2023-06-10T07:02:21;20.73;68.07
67641;SHT31;54434;50.096;20.082;2023-06-10T07:04:57;20.68;68.21
67641;SHT31;54434;50.096;20.082;2023-06-10T07:09:40;20.68;68.38
67641;SHT31;54434;50.096;20.082;2023-06-10T07:12:16;20.64;68.35
67641;SHT31;54434;50.096;20.082;2023-06-10T07:14:55;20.58;68.65
67641;SHT31;54434;50.096;20.082;2023-06-10T07:17:32;20.61;68.85
67641;SHT31;54434;50.096;20.082;2023-06-10T07:20:10;20.62;68.58
67641;SHT31;54434;50.096;20.082;2023-06-10T07:22:47;20.60;68.39
67641;SHT31;54434;50.096;20.082;2023-06-10T07:25:24;20.56;68.40
67641;SHT31;54434;50.096;20.082;2023-06-10T07:28:01;20.54;68.69
67641;SHT31;54434;50.096;20.082;2023-06-10T07:30:37;20.58;68.60
67641;SHT31;54434;50.096;20.082;2023-06-10T07:33:14;20.58;68.15
67641;SHT31;54434;50.096;20.082;2023-06-10T07:35:51;20.56;68.14
67641;SHT31;54434;50.096;20.082;2023-06-10T07:38:28;20.60;68.04
67641;SHT31;54434;50.096;20.082;2023-06-10T07:41:04;20.65;67.90
67641;SHT31;54434;50.096;20.082;2023-06-10T07:43:41;20.69;68.06
67641;SHT31;54434;50.096;20.082;2023-06-10T07:46:17;20.83;68.09
67641;SHT31;54434;50.096;20.082;2023-06-10T07:48:54;20.95;67.81
67641;SHT31;54434;50.096;20.082;2023-06-10T07:51:31;21.04;67.60
67641;SHT31;54434;50.096;20.082;2023-06-10T07:54:08;21.08;67.44
67641;SHT31;54434;50.096;20.082;2023-06-10T07:56:48;21.21;66.93
67641;SHT31;54434;50.096;20.082;2023-06-10T07:59:25;21.30;66.83
67641;SHT31;54434;50.096;20.082;2023-06-10T08:02:02;21.42;66.65
67641;SHT31;54434;50.096;20.082;2023-06-10T08:04:40;21.52;66.31
67641;SHT31;54434;50.096;20.082;2023-06-10T08:07:16;21.68;66.15
67641;SHT31;54434;50.096;20.082;2023-06-10T08:09:53;21.86;65.78
67641;SHT31;54434;50.096;20.082;2023-06-10T08:12:30;22.11;65.78
67641;SHT31;54434;50.096;20.082;2023-06-10T08:15:09;22.43;64.69
67641;SHT31;54434;50.096;20.082;2023-06-10T08:17:46;22.66;64.00
67641;SHT31;54434;50.096;20.082;2023-06-10T08:20:23;22.92;63.46
67641;SHT31;54434;50.096;20.082;2023-06-10T08:23:00;23.00;62.54
67641;SHT31;54434;50.096;20.082;2023-06-10T08:25:37;23.08;62.38
67641;SHT31;54434;50.096;20.082;2023-06-10T08:28:14;23.15;62.19
67641;SHT31;54434;50.096;20.082;2023-06-10T08:30:51;23.34;61.84
67641;SHT31;54434;50.096;20.082;2023-06-10T08:33:28;23.45;61.66
67641;SHT31;54434;50.096;20.082;2023-06-10T08:36:05;23.66;61.73
67641;SHT31;54434;50.096;20.082;2023-06-10T08:38:42;23.98;61.26
67641;SHT31;54434;50.096;20.082;2023-06-10T08:41:18;24.22;59.64
67641;SHT31;54434;50.096;20.082;2023-06-10T08:44:02;24.36;59.19
67641;SHT31;54434;50.096;20.082;2023-06-10T08:46:44;24.39;59.09
67641;SHT31;54434;50.096;20.082;2023-06-10T08:49:24;24.31;59.16
67641;SHT31;54434;50.096;20.082;2023-06-10T08:52:07;24.27;59.94
67641;SHT31;54434;50.096;20.082;2023-06-10T08:54:51;24.38;59.81
67641;SHT31;54434;50.096;20.082;2023-06-10T08:57:32;24.47;59.12
67641;SHT31;54434;50.096;20.082;2023-06-10T09:00:12;24.50;58.84
67641;SHT31;54434;50.096;20.082;2023-06-10T09:02:51;24.54;58.98
67641;SHT31;54434;50.096;20.082;2023-06-10T09:05:30;24.58;59.20
67641;SHT31;54434;50.096;20.082;2023-06-10T09:08:09;24.61;58.70
67641;SHT31;54434;50.096;20.082;2023-06-10T09:10:46;24.58;58.47
67641;SHT31;54434;50.096;20.082;2023-06-10T09:13:23;24.57;58.70
67641;SHT31;54434;50.096;20.082;2023-06-10T09:16:00;24.57;58.42
67641;SHT31;54434;50.096;20.082;2023-06-10T09:18:38;24.53;57.88
67641;SHT31;54434;50.096;20.082;2023-06-10T09:21:15;24.39;57.89
67641;SHT31;54434;50.096;20.082;2023-06-10T09:23:52;24.29;58.40
67641;SHT31;54434;50.096;20.082;2023-06-10T09:26:30;24.23;58.62
67641;SHT31;54434;50.096;20.082;2023-06-10T09:29:08;24.14;58.69
67641;SHT31;54434;50.096;20.082;2023-06-10T09:31:44;24.06;58.64
67641;SHT31;54434;50.096;20.082;2023-06-10T09:34:24;24.03;58.75
67641;SHT31;54434;50.096;20.082;2023-06-10T09:37:01;23.99;58.86
67641;SHT31;54434;50.096;20.082;2023-06-10T09:39:40;23.98;58.56
67641;SHT31;54434;50.096;20.082;2023-06-10T09:42:20;23.92;58.02
67641;SHT31;54434;50.096;20.082;2023-06-10T09:44:57;23.86;58.52
67641;SHT31;54434;50.096;20.082;2023-06-10T09:47:34;23.85;58.69
67641;SHT31;54434;50.096;20.082;2023-06-10T09:50:11;23.78;58.94
67641;SHT31;54434;50.096;20.082;2023-06-10T09:52:48;23.73;59.29
67641;SHT31;54434;50.096;20.082;2023-06-10T09:55:26;23.71;59.11
67641;SHT31;54434;50.096;20.082;2023-06-10T09:58:06;23.68;59.17
67641;SHT31;54434;50.096;20.082;2023-06-10T10:00:42;23.63;59.12
67641;SHT31;54434;50.096;20.082;2023-06-10T10:03:25;23.61;59.37
67641;SHT31;54434;50.096;20.082;2023-06-10T10:06:01;23.57;59.14
67641;SHT31;54434;50.096;20.082;2023-06-10T10:08:38;23.44;59.69
67641;SHT31;54434;50.096;20.082;2023-06-10T10:11:17;23.39;60.27
67641;SHT31;54434;50.096;20.082;2023-06-10T10:13:55;23.36;60.74
67641;SHT31;54434;50.096;20.082;2023-06-10T10:16:35;23.34;60.78
67641;SHT31;54434;50.096;20.082;2023-06-10T10:19:18;23.31;61.16
67641;SHT31;54434;50.096;20.082;2023-06-10T10:22:03;23.27;61.06
67641;SHT31;54434;50.096;20.082;2023-06-10T10:24:45;23.17;61.19
67641;SHT31;54434;50.096;20.082;2023-06-10T10:27:28;23.06;61.63
67641;SHT31;54434;50.096;20.082;2023-06-10T10:30:16;23.01;62.27
67641;SHT31;54434;50.096;20.082;2023-06-10T10:33:00;23.00;62.27
67641;SHT31;54434;50.096;20.082;2023-06-10T10:35:46;23.01;62.22
67641;SHT31;54434;50.096;20.082;2023-06-10T10:38:24;23.00;62.53
67641;SHT31;54434;50.096;20.082;2023-06-10T10:41:02;23.00;62.57
67641;SHT31;54434;50.096;20.082;2023-06-10T10:43:40;23.00;62.38
67641;SHT31;54434;50.096;20.082;2023-06-10T10:46:19;23.00;62.56
67641;SHT31;54434;50.096;20.082;2023-06-10T10:48:56;23.02;62.65
67641;SHT31;54434;50.096;20.082;2023-06-10T10:51:36;23.03;62.37
67641;SHT31;54434;50.096;20.082;2023-06-10T10:54:33;23.01;62.07
67641;SHT31;54434;50.096;20.082;2023-06-10T10:57:17;23.01;62.03
67641;SHT31;54434;50.096;20.082;2023-06-10T10:59:56;23.03;61.85
67641;SHT31;54434;50.096;20.082;2023-06-10T11:02:39;22.96;61.55
67641;SHT31;54434;50.096;20.082;2023-06-10T11:05:18;22.97;61.77
67641;SHT31;54434;50.096;20.082;2023-06-10T11:08:11;22.98;61.92
67641;SHT31;54434;50.096;20.082;2023-06-10T11:11:21;23.00;61.95
67641;SHT31;54434;50.096;20.082;2023-06-10T11:14:08;23.01;61.72
67641;SHT31;54434;50.096;20.082;2023-06-10T11:16:44;22.98;61.73
67641;SHT31;54434;50.096;20.082;2023-06-10T11:19:35;22.94;61.51
67641;SHT31;54434;50.096;20.082;2023-06-10T11:22:19;22.88;61.94
67641;SHT31;54434;50.096;20.082;2023-06-10T11:24:55;22.86;62.22
67641;SHT31;54434;50.096;20.082;2023-06-10T11:27:37;22.85;62.33
67641;SHT31;54434;50.096;20.082;2023-06-10T11:30:22;22.87;63.36
67641;SHT31;54434;50.096;20.082;2023-06-10T11:33:08;22.90;63.11
67641;SHT31;54434;50.096;20.082;2023-06-10T11:35:50;22.90;63.13
67641;SHT31;54434;50.096;20.082;2023-06-10T11:38:26;22.92;62.93
67641;SHT31;54434;50.096;20.082;2023-06-10T11:41:04;22.94;62.82
67641;SHT31;54434;50.096;20.082;2023-06-10T11:43:43;22.92;62.00
67641;SHT31;54434;50.096;20.082;2023-06-10T11:46:20;22.88;61.88
67641;SHT31;54434;50.096;20.082;2023-06-10T11:48:59;22.87;61.45
67641;SHT31;54434;50.096;20.082;2023-06-10T11:51:38;22.81;61.42
67641;SHT31;54434;50.096;20.082;2023-06-10T11:54:21;22.80;61.52
67641;SHT31;54434;50.096;20.082;2023-06-10T11:57:00;22.81;61.30
67641;SHT31;54434;50.096;20.082;2023-06-10T11:59:37;22.78;61.18
67641;SHT31;54434;50.096;20.082;2023-06-10T12:02:17;22.77;61.05
67641;SHT31;54434;50.096;20.082;2023-06-10T12:04:54;22.76;61.35
67641;SHT31;54434;50.096;20.082;2023-06-10T12:07:47;22.81;61.53
67641;SHT31;54434;50.096;20.082;2023-06-10T12:10:42;22.82;61.00
67641;SHT31;54434;50.096;20.082;2023-06-10T12:13:18;22.84;61.13
67641;SHT31;54434;50.096;20.082;2023-06-10T12:16:05;22.86;60.66
67641;SHT31;54434;50.096;20.082;2023-06-10T12:18:44;22.87;60.68
67641;SHT31;54434;50.096;20.082;2023-06-10T12:21:23;22.87;60.45
67641;SHT31;54434;50.096;20.082;2023-06-10T12:24:08;22.85;60.05
67641;SHT31;54434;50.096;20.082;2023-06-10T12:26:45;22.80;59.65
67641;SHT31;54434;50.096;20.082;2023-06-10T12:29:27;22.78;59.85
67641;SHT31;54434;50.096;20.082;2023-06-10T12:32:04;22.78;59.88
67641;SHT31;54434;50.096;20.082;2023-06-10T12:34:44;22.79;59.90
67641;SHT31;54434;50.096;20.082;2023-06-10T12:37:20;22.80;60.04
67641;SHT31;54434;50.096;20.082;2023-06-10T12:39:57;22.82;60.09
67641;SHT31;54434;50.096;20.082;2023-06-10T12:42:38;22.84;59.97
67641;SHT31;54434;50.096;20.082;2023-06-10T12:45:27;22.84;60.00
67641;SHT31;54434;50.096;20.082;2023-06-10T12:48:10;22.86;59.70
67641;SHT31;54434;50.096;20.082;2023-06-10T12:50:55;22.86;59.28
67641;SHT31;54434;50.096;20.082;2023-06-10T12:53:32;22.83;58.94
67641;SHT31;54434;50.096;20.082;2023-06-10T12:56:11;22.81;58.89
67641;SHT31;54434;50.096;20.082;2023-06-10T12:58:48;22.81;59.10
67641;SHT31;54434;50.096;20.082;2023-06-10T13:01:24;22.82;59.71
67641;SHT31;54434;50.096;20.082;2023-06-10T13:04:03;22.86;59.39
67641;SHT31;54434;50.096;20.082;2023-06-10T13:06:41;22.86;59.51
67641;SHT31;54434;50.096;20.082;2023-06-10T13:09:18;22.85;59.57
67641;SHT31;54434;50.096;20.082;2023-06-10T13:11:56;22.82;59.34
67641;SHT31;54434;50.096;20.082;2023-06-10T13:14:33;22.81;59.34
67641;SHT31;54434;50.096;20.082;2023-06-10T13:17:10;22.80;59.14
67641;SHT31;54434;50.096;20.082;2023-06-10T13:19:49;22.76;58.91
67641;SHT31;54434;50.096;20.082;2023-06-10T13:22:26;22.76;59.00
67641;SHT31;54434;50.096;20.082;2023-06-10T13:25:05;22.72;59.20
67641;SHT31;54434;50.096;20.082;2023-06-10T13:27:43;22.70;59.19
67641;SHT31;54434;50.096;20.082;2023-06-10T13:30:19;22.69;59.39
67641;SHT31;54434;50.096;20.082;2023-06-10T13:32:56;22.70;59.33
67641;SHT31;54434;50.096;20.082;2023-06-10T13:35:33;22.71;59.21
67641;SHT31;54434;50.096;20.082;2023-06-10T13:38:09;22.71;59.44
67641;SHT31;54434;50.096;20.082;2023-06-10T13:40:45;22.71;59.48
67641;SHT31;54434;50.096;20.082;2023-06-10T13:43:23;22.71;59.51
67641;SHT31;54434;50.096;20.082;2023-06-10T13:46:04;22.72;59.56
67641;SHT31;54434;50.096;20.082;2023-06-10T13:48:47;22.67;58.62
67641;SHT31;54434;50.096;20.082;2023-06-10T13:51:29;22.50;58.18
67641;SHT31;54434;50.096;20.082;2023-06-10T13:54:08;22.41;58.62
67641;SHT31;54434;50.096;20.082;2023-06-10T13:56:46;22.39;58.67
67641;SHT31;54434;50.096;20.082;2023-06-10T13:59:23;22.44;59.08
67641;SHT31;54434;50.096;20.082;2023-06-10T14:01:59;22.41;59.03
67641;SHT31;54434;50.096;20.082;2023-06-10T14:04:36;22.41;59.82
67641;SHT31;54434;50.096;20.082;2023-06-10T14:07:13;22.45;59.98
67641;SHT31;54434;50.096;20.082;2023-06-10T14:09:49;22.49;59.69
67641;SHT31;54434;50.096;20.082;2023-06-10T14:12:26;22.47;59.42
67641;SHT31;54434;50.096;20.082;2023-06-10T14:15:04;22.43;58.95
67641;SHT31;54434;50.096;20.082;2023-06-10T14:17:43;22.40;58.31
67641;SHT31;54434;50.096;20.082;2023-06-10T14:20:19;22.38;58.51
67641;SHT31;54434;50.096;20.082;2023-06-10T14:22:57;22.35;58.43
67641;SHT31;54434;50.096;20.082;2023-06-10T14:25:38;22.34;58.29
67641;SHT31;54434;50.096;20.082;2023-06-10T14:28:20;22.40;58.73
67641;SHT31;54434;50.096;20.082;2023-06-10T14:30:57;22.41;58.74
67641;SHT31;54434;50.096;20.082;2023-06-10T14:33:34;22.43;59.01
67641;SHT31;54434;50.096;20.082;2023-06-10T14:36:11;22.45;59.20
67641;SHT31;54434;50.096;20.082;2023-06-10T14:38:47;22.48;59.13
67641;SHT31;54434;50.096;20.082;2023-06-10T14:41:25;22.50;59.07
67641;SHT31;54434;50.096;20.082;2023-06-10T14:44:02;22.49;58.71
67641;SHT31;54434;50.096;20.082;2023-06-10T14:46:40;22.50;58.71
67641;SHT31;54434;50.096;20.082;2023-06-10T14:49:17;22.53;58.58
67641;SHT31;54434;50.096;20.082;2023-06-10T14:51:53;22.58;58.73
67641;SHT31;54434;50.096;20.082;2023-06-10T14:54:30;22.63;57.85
67641;SHT31;54434;50.096;20.082;2023-06-10T14:57:07;22.63;57.88
67641;SHT31;54434;50.096;20.082;2023-06-10T14:59:44;22.58;57.79
67641;SHT31;54434;50.096;20.082;2023-06-10T15:02:20;22.55;58.26
67641;SHT31;54434;50.096;20.082;2023-06-10T15:04:57;22.59;57.70
67641;SHT31;54434;50.096;20.082;2023-06-10T15:07:33;22.59;56.87
67641;SHT31;54434;50.096;20.082;2023-06-10T15:10:11;22.55;57.29
67641;SHT31;54434;50.096;20.082;2023-06-10T15:12:48;22.46;57.10
67641;SHT31;54434;50.096;20.082;2023-06-10T15:15:27;22.30;57.11
67641;SHT31;54434;50.096;20.082;2023-06-10T15:18:04;22.27;57.55
67641;SHT31;54434;50.096;20.082;2023-06-10T15:20:41;22.31;56.76
67641;SHT31;54434;50.096;20.082;2023-06-10T15:23:18;22.35;55.58
67641;SHT31;54434;50.096;20.082;2023-06-10T15:25:55;22.44;55.48
67641;SHT31;54434;50.096;20.082;2023-06-10T15:28:31;22.51;56.73
67641;SHT31;54434;50.096;20.082;2023-06-10T15:31:08;22.54;56.32
67641;SHT31;54434;50.096;20.082;2023-06-10T15:33:44;22.59;55.21
67641;SHT31;54434;50.096;20.082;2023-06-10T15:36:21;22.62;54.85
67641;SHT31;54434;50.096;20.082;2023-06-10T15:39:00;22.68;55.21
67641;SHT31;54434;50.096;20.082;2023-06-10T15:41:39;22.74;55.97
67641;SHT31;54434;50.096;20.082;2023-06-10T15:44:15;22.80;55.73
67641;SHT31;54434;50.096;20.082;2023-06-10T15:46:51;22.81;56.40
67641;SHT31;54434;50.096;20.082;2023-06-10T15:49:28;22.77;56.28
67641;SHT31;54434;50.096;20.082;2023-06-10T15:52:06;22.72;56.64
67641;SHT31;54434;50.096;20.082;2023-06-10T15:54:42;22.66;57.60
67641;SHT31;54434;50.096;20.082;2023-06-10T15:57:19;22.56;58.23
67641;SHT31;54434;50.096;20.082;2023-06-10T15:59:57;22.39;59.02
67641;SHT31;54434;50.096;20.082;2023-06-10T16:02:35;22.23;59.58
67641;SHT31;54434;50.096;20.082;2023-06-10T16:05:11;22.10;60.28
67641;SHT31;54434;50.096;20.082;2023-06-10T16:07:48;21.99;60.19
67641;SHT31;54434;50.096;20.082;2023-06-10T16:10:24;21.89;59.61
67641;SHT31;54434;50.096;20.082;2023-06-10T16:13:00;21.86;59.59
67641;SHT31;54434;50.096;20.082;2023-06-10T16:15:37;21.85;59.02
67641;SHT31;54434;50.096;20.082;2023-06-10T16:18:14;21.89;58.97
67641;SHT31;54434;50.096;20.082;2023-06-10T16:20:50;21.93;59.16
67641;SHT31;54434;50.096;20.082;2023-06-10T16:23:26;21.95;59.72
67641;SHT31;54434;50.096;20.082;2023-06-10T16:26:03;21.89;60.11